createdAt,value
2019-03-15T00:01:34.873Z,2.93
2019-03-15T00:04:03.367Z,3.13
2019-03-15T00:06:31.900Z,3.27
2019-03-15T00:09:00.388Z,2.90
2019-03-15T00:11:29.346Z,2.47
2019-03-15T00:13:58.036Z,2.73
2019-03-15T00:16:26.505Z,2.60
2019-03-15T00:18:54.999Z,2.47
2019-03-15T00:21:23.478Z,2.43
2019-03-15T00:23:51.948Z,2.60
2019-03-15T00:26:20.443Z,2.03
2019-03-15T00:28:48.919Z,2.00
2019-03-15T00:31:17.414Z,1.63
2019-03-15T00:33:45.882Z,2.00
2019-03-15T00:36:14.375Z,1.90
2019-03-15T00:38:42.850Z,2.27
2019-03-15T00:41:11.347Z,2.30
2019-03-15T00:43:39.819Z,2.13
2019-03-15T00:46:08.316Z,2.50
2019-03-15T00:48:36.785Z,2.23
2019-03-15T00:51:05.350Z,2.40
2019-03-15T00:53:33.828Z,3.00
2019-03-15T00:56:02.328Z,2.40
2019-03-15T00:58:30.799Z,2.60
2019-03-15T01:00:59.290Z,3.00
2019-03-15T01:03:27.760Z,2.80
2019-03-15T01:05:56.258Z,3.07
2019-03-15T01:08:24.731Z,3.33
2019-03-15T01:10:53.229Z,3.40
2019-03-15T01:13:21.701Z,3.60
2019-03-15T01:15:50.200Z,3.63
2019-03-15T01:18:18.671Z,3.90
2019-03-15T01:20:47.165Z,4.00
2019-03-15T01:23:15.638Z,4.80
2019-03-15T01:25:44.130Z,4.23
2019-03-15T01:28:12.595Z,5.23
2019-03-15T01:30:41.098Z,4.50
2019-03-15T01:33:09.569Z,4.27
2019-03-15T01:35:38.073Z,5.33
2019-03-15T01:38:06.543Z,4.10
2019-03-15T01:40:35.083Z,4.53
2019-03-15T01:43:03.519Z,4.03
2019-03-15T01:45:32.032Z,4.63
2019-03-15T01:48:00.511Z,3.53
2019-03-15T01:50:29.007Z,3.20
2019-03-15T01:52:58.498Z,3.23
2019-03-15T01:55:27.073Z,2.93
2019-03-15T01:57:55.531Z,2.70
2019-03-15T02:00:24.035Z,2.70
2019-03-15T02:02:52.497Z,2.90
2019-03-15T02:05:20.997Z,2.47
2019-03-15T02:07:49.469Z,2.70
2019-03-15T02:10:17.976Z,3.33
2019-03-15T02:12:47.487Z,2.27
2019-03-15T02:15:16.197Z,2.20
2019-03-15T02:17:44.669Z,2.43
2019-03-15T02:20:13.434Z,2.60
2019-03-15T02:22:41.931Z,2.87
2019-03-15T02:25:10.407Z,2.27
2019-03-15T02:27:39.135Z,2.03
2019-03-15T02:30:10.366Z,2.10
2019-03-15T02:32:39.405Z,2.30
2019-03-15T02:35:08.484Z,2.67
2019-03-15T02:37:36.964Z,2.93
2019-03-15T02:40:06.714Z,2.63
2019-03-15T02:42:35.209Z,2.60
2019-03-15T02:45:03.759Z,2.33
2019-03-15T02:47:32.246Z,2.30
2019-03-15T02:50:01.780Z,2.93
2019-03-15T02:52:30.687Z,2.37
2019-03-15T02:54:59.153Z,2.07
2019-03-15T02:57:27.642Z,2.23
2019-03-15T02:59:56.097Z,2.10
2019-03-15T03:02:24.590Z,2.20
2019-03-15T03:04:53.053Z,2.00
2019-03-15T03:07:21.543Z,2.00
2019-03-15T03:09:50.019Z,1.83
2019-03-15T03:12:18.514Z,1.70
2019-03-15T03:14:46.971Z,2.00
2019-03-15T03:17:15.461Z,1.83
2019-03-15T03:19:43.930Z,2.00
2019-03-15T03:22:12.435Z,1.73
2019-03-15T03:24:40.879Z,1.77
2019-03-15T03:27:09.371Z,1.90
2019-03-15T03:29:37.831Z,1.70
2019-03-15T03:32:06.355Z,1.73
2019-03-15T03:34:35.067Z,1.63
2019-03-15T03:37:03.690Z,1.67
2019-03-15T03:39:32.198Z,1.97
2019-03-15T03:42:00.639Z,1.60
2019-03-15T03:44:29.106Z,1.40
2019-03-15T03:46:57.600Z,1.50
2019-03-15T03:49:26.065Z,1.40
2019-03-15T03:51:54.553Z,1.40
2019-03-15T03:54:23.083Z,1.93
2019-03-15T03:56:51.585Z,1.77
2019-03-15T03:59:20.115Z,1.30
2019-03-15T04:01:48.611Z,2.10
2019-03-15T04:04:17.322Z,1.43
2019-03-15T04:06:45.876Z,1.47
2019-03-15T04:09:14.340Z,1.60
2019-03-15T04:11:54.594Z,1.40
2019-03-15T04:14:13.031Z,1.70
2019-03-15T04:16:41.517Z,1.40
2019-03-15T04:19:09.991Z,2.00
2019-03-15T04:21:38.471Z,1.40
2019-03-15T04:24:06.938Z,1.30
2019-03-15T04:26:35.441Z,2.37
2019-03-15T04:29:03.905Z,1.33
2019-03-15T04:31:32.398Z,1.30
2019-03-15T04:34:00.857Z,1.53
2019-03-15T04:36:29.343Z,1.57
2019-03-15T04:38:57.804Z,1.70
2019-03-15T04:41:26.299Z,1.23
2019-03-15T04:43:54.752Z,1.50
2019-03-15T04:46:23.237Z,1.23
2019-03-15T04:48:51.702Z,1.63
2019-03-15T04:51:20.193Z,1.63
2019-03-15T04:53:48.666Z,1.60
2019-03-15T04:56:17.144Z,1.60
2019-03-15T04:58:45.610Z,1.50
2019-03-15T05:01:14.068Z,1.30
2019-03-15T05:03:42.553Z,1.87
2019-03-15T05:06:11.024Z,1.80
2019-03-15T05:08:39.574Z,1.50
2019-03-15T05:11:08.675Z,1.67
2019-03-15T05:13:37.209Z,1.33
2019-03-15T05:16:05.674Z,1.50
2019-03-15T05:18:34.376Z,1.67
2019-03-15T05:21:02.936Z,2.17
2019-03-15T05:23:31.410Z,1.70
2019-03-15T05:25:59.869Z,1.70
2019-03-15T05:28:28.356Z,1.90
2019-03-15T05:30:56.817Z,1.80
2019-03-15T05:33:25.302Z,2.17
2019-03-15T05:35:53.763Z,1.93
2019-03-15T05:38:22.245Z,1.73
2019-03-15T05:40:50.708Z,1.60
2019-03-15T05:43:19.198Z,2.00
2019-03-15T05:45:47.666Z,1.70
2019-03-15T05:48:16.157Z,1.83
2019-03-15T05:50:44.618Z,1.97
2019-03-15T05:53:13.102Z,1.73
2019-03-15T05:55:41.562Z,2.07
2019-03-15T05:58:10.055Z,2.00
2019-03-15T06:00:38.517Z,1.80
2019-03-15T06:03:06.999Z,1.97
2019-03-15T06:05:35.466Z,2.03
2019-03-15T06:08:03.958Z,2.00
2019-03-15T06:10:32.417Z,1.73
2019-03-15T06:13:00.901Z,2.27
2019-03-15T06:15:29.363Z,2.10
2019-03-15T06:17:57.852Z,2.43
2019-03-15T06:20:26.321Z,2.10
2019-03-15T06:22:54.808Z,1.90
2019-03-15T06:25:23.273Z,2.10
2019-03-15T06:27:51.762Z,2.10
2019-03-15T06:30:20.261Z,2.13
2019-03-15T06:32:48.823Z,2.57
2019-03-15T06:35:17.284Z,2.13
2019-03-15T06:37:45.775Z,2.70
2019-03-15T06:40:14.243Z,1.93
2019-03-15T06:42:42.738Z,1.90
2019-03-15T06:45:14.324Z,1.90
2019-03-15T06:47:42.859Z,2.33
2019-03-15T06:50:11.402Z,1.90
2019-03-15T06:52:39.887Z,2.10
2019-03-15T06:55:09.398Z,1.80
2019-03-15T06:57:37.884Z,1.90
2019-03-15T07:00:09.405Z,2.37
2019-03-15T07:02:37.889Z,2.20
2019-03-15T07:05:07.891Z,1.90
2019-03-15T07:07:36.386Z,2.13
2019-03-15T07:10:07.592Z,2.37
2019-03-15T07:12:36.086Z,2.20
2019-03-15T07:15:06.684Z,1.93
2019-03-15T07:17:35.170Z,2.23
2019-03-15T07:20:05.079Z,2.43
2019-03-15T07:22:33.563Z,1.83
2019-03-15T07:25:02.035Z,3.00
2019-03-15T07:27:30.529Z,2.33
2019-03-15T07:30:00.089Z,2.27
2019-03-15T07:32:28.756Z,2.30
2019-03-15T07:34:57.213Z,2.93
2019-03-15T07:37:25.688Z,2.10
2019-03-15T07:39:54.186Z,2.50
2019-03-15T07:42:22.655Z,2.23
2019-03-15T07:44:51.239Z,2.60
2019-03-15T07:47:19.691Z,1.63
2019-03-15T07:49:48.209Z,2.60
2019-03-15T07:52:16.694Z,2.20
2019-03-15T07:54:45.173Z,2.07
2019-03-15T07:57:13.636Z,2.60
2019-03-15T07:59:42.140Z,2.43
2019-03-15T08:02:10.607Z,2.20
2019-03-15T08:04:39.102Z,2.50
2019-03-15T08:07:07.564Z,2.20
2019-03-15T08:09:36.057Z,2.53
2019-03-15T08:12:04.527Z,2.70
2019-03-15T08:14:33.017Z,2.40
2019-03-15T08:17:01.483Z,2.70
2019-03-15T08:19:29.980Z,2.43
2019-03-15T08:21:58.445Z,2.60
2019-03-15T08:24:26.941Z,2.30
2019-03-15T08:26:55.404Z,2.37
2019-03-15T08:29:23.896Z,2.30
2019-03-15T08:31:52.363Z,2.63
2019-03-15T08:34:20.863Z,3.40
2019-03-15T08:36:49.326Z,2.37
2019-03-15T08:39:17.820Z,2.50
2019-03-15T08:41:46.287Z,2.70
2019-03-15T08:44:14.801Z,2.90
2019-03-15T08:46:43.268Z,2.30
2019-03-15T08:49:11.749Z,2.50
2019-03-15T08:51:40.213Z,2.57
2019-03-15T08:54:08.701Z,2.97
2019-03-15T08:56:37.174Z,2.93
2019-03-15T08:59:05.679Z,2.97
2019-03-15T09:01:34.141Z,2.57
2019-03-15T09:04:02.624Z,2.50
2019-03-15T09:06:31.096Z,2.30
2019-03-15T09:08:59.579Z,2.87
2019-03-15T09:11:28.053Z,3.20
2019-03-15T09:13:56.616Z,2.87
2019-03-15T09:16:25.085Z,2.73
2019-03-15T09:18:55.520Z,2.83
2019-03-15T09:21:23.768Z,3.33
2019-03-15T09:23:52.260Z,2.03
2019-03-15T09:26:20.731Z,2.60
2019-03-15T09:28:49.303Z,2.13
2019-03-15T09:31:17.758Z,2.80
2019-03-15T09:33:46.352Z,2.43
2019-03-15T09:36:14.790Z,2.60
2019-03-15T09:38:43.278Z,2.10
2019-03-15T09:41:11.743Z,2.37
2019-03-15T09:43:40.229Z,2.10
2019-03-15T09:46:08.705Z,3.30
2019-03-15T09:48:37.205Z,3.07
2019-03-15T09:51:05.674Z,2.27
2019-03-15T09:53:34.163Z,2.27
2019-03-15T09:56:02.621Z,2.50
2019-03-15T09:58:31.080Z,2.43
2019-03-15T10:01:00.002Z,2.20
2019-03-15T10:03:28.717Z,1.93
2019-03-15T10:05:57.201Z,2.30
2019-03-15T10:08:25.667Z,2.03
2019-03-15T10:10:54.156Z,2.30
2019-03-15T10:13:22.611Z,2.33
2019-03-15T10:15:51.294Z,2.70
2019-03-15T10:18:19.850Z,2.47
2019-03-15T10:20:48.336Z,2.57
2019-03-15T10:23:16.807Z,2.00
2019-03-15T10:25:47.140Z,2.30
2019-03-15T10:28:15.478Z,2.20
2019-03-15T10:30:43.959Z,2.50
2019-03-15T10:33:12.496Z,2.23
2019-03-15T10:35:40.989Z,2.30
2019-03-15T10:38:09.561Z,2.27
2019-03-15T10:40:38.115Z,2.50
2019-03-15T10:43:06.575Z,2.50
2019-03-15T10:45:35.060Z,2.30
2019-03-15T10:48:03.520Z,2.23
2019-03-15T10:50:32.006Z,2.67
2019-03-15T10:53:00.475Z,2.53
2019-03-15T10:55:28.965Z,2.43
2019-03-15T10:57:57.427Z,2.20
2019-03-15T11:00:26.095Z,2.10
2019-03-15T11:02:54.567Z,2.20
2019-03-15T11:05:23.055Z,2.40
2019-03-15T11:07:51.512Z,2.77
2019-03-15T11:10:20.012Z,2.47
2019-03-15T11:12:48.482Z,2.23
2019-03-15T11:15:17.297Z,2.80
2019-03-15T11:17:45.787Z,2.50
2019-03-15T11:20:14.626Z,2.40
2019-03-15T11:22:43.228Z,2.50
2019-03-15T11:25:12.647Z,2.23
2019-03-15T11:27:41.109Z,2.37
2019-03-15T11:30:16.500Z,2.40
2019-03-15T11:32:44.892Z,1.80
2019-03-15T11:35:13.457Z,2.50
2019-03-15T11:37:41.928Z,2.50
2019-03-15T11:40:14.134Z,2.47
2019-03-15T11:42:42.722Z,2.30
2019-03-15T11:45:12.260Z,2.50
2019-03-15T11:48:01.346Z,2.87
2019-03-15T11:50:13.595Z,2.10
2019-03-15T11:52:42.124Z,2.20
2019-03-15T11:55:11.127Z,2.03
2019-03-15T11:57:39.595Z,2.10
2019-03-15T12:00:13.839Z,2.63
2019-03-15T12:02:42.305Z,3.73
2019-03-15T12:05:11.049Z,3.23
2019-03-15T12:07:39.511Z,4.20
2019-03-15T12:10:12.560Z,3.50
2019-03-15T12:12:41.030Z,5.87
2019-03-15T12:15:14.237Z,6.83
2019-03-15T12:17:42.706Z,4.60
2019-03-15T12:20:12.446Z,3.10
2019-03-15T12:22:40.970Z,3.53
2019-03-15T12:25:10.496Z,3.30
2019-03-15T12:27:38.962Z,4.90
2019-03-15T12:30:13.381Z,3.53
2019-03-15T12:32:41.846Z,4.87
2019-03-15T12:35:11.773Z,4.93
2019-03-15T12:37:40.244Z,4.77
2019-03-15T12:40:14.120Z,4.00
2019-03-15T12:42:42.579Z,2.90
2019-03-15T12:45:13.092Z,3.33
2019-03-15T12:47:41.559Z,2.03
2019-03-15T12:50:11.491Z,2.63
2019-03-15T12:52:46.987Z,2.20
2019-03-15T12:55:12.387Z,3.30
2019-03-15T12:57:40.845Z,2.33
2019-03-15T13:00:14.493Z,1.87
2019-03-15T13:02:47.755Z,1.70
2019-03-15T13:05:16.228Z,1.87
2019-03-15T13:07:44.690Z,4.30
2019-03-15T13:10:20.839Z,2.43
2019-03-15T13:12:49.473Z,3.50
2019-03-15T13:15:18.309Z,2.77
2019-03-15T13:17:46.842Z,2.80
2019-03-15T13:20:18.588Z,9.80
2019-03-15T13:22:47.128Z,2.40
2019-03-15T13:25:15.619Z,2.07
2019-03-15T13:27:44.082Z,2.30
2019-03-15T13:30:15.632Z,2.23
2019-03-15T13:32:44.086Z,2.20
2019-03-15T13:35:14.237Z,2.50
2019-03-15T13:37:43.397Z,3.97
2019-03-15T13:40:17.495Z,4.30
2019-03-15T13:42:45.954Z,2.47
2019-03-15T13:45:15.357Z,2.60
2019-03-15T13:47:43.854Z,3.13
2019-03-15T13:50:19.674Z,2.57
2019-03-15T13:52:48.163Z,1.80
2019-03-15T13:55:16.622Z,1.90
2019-03-15T13:57:45.328Z,1.60
2019-03-15T14:00:17.831Z,1.83
2019-03-15T14:02:46.400Z,1.67
2019-03-15T14:05:15.008Z,1.80
2019-03-15T14:07:43.494Z,2.17
2019-03-15T14:10:17.182Z,2.07
2019-03-15T14:12:45.729Z,2.90
2019-03-15T14:15:17.240Z,1.80
2019-03-15T14:17:45.796Z,1.70
2019-03-15T14:20:14.442Z,1.40
2019-03-15T14:22:42.925Z,1.50
2019-03-15T14:25:27.863Z,1.67
2019-03-15T14:27:56.347Z,1.40
2019-03-15T14:30:24.816Z,1.30
2019-03-15T14:32:53.299Z,1.40
2019-03-15T14:35:21.758Z,1.47
2019-03-15T14:37:50.250Z,1.57
2019-03-15T14:40:18.714Z,1.50
2019-03-15T14:42:47.412Z,1.40
2019-03-15T14:45:16.540Z,2.00
2019-03-15T14:47:45.143Z,1.60
2019-03-15T14:50:14.640Z,2.00
2019-03-15T14:52:43.126Z,2.03
2019-03-15T14:55:16.757Z,2.40
2019-03-15T14:57:52.569Z,2.13
2019-03-15T15:00:19.195Z,2.83
2019-03-15T15:02:47.751Z,2.30
2019-03-15T15:05:19.230Z,2.20
2019-03-15T15:07:47.726Z,2.63
2019-03-15T15:10:19.205Z,2.40
2019-03-15T15:12:47.752Z,2.37
2019-03-15T15:15:20.266Z,2.40
2019-03-15T15:17:48.757Z,2.67
2019-03-15T15:20:17.256Z,2.10
2019-03-15T15:22:45.776Z,1.97
2019-03-15T15:25:15.455Z,1.93
2019-03-15T15:27:44.210Z,2.17
2019-03-15T15:30:16.837Z,2.10
2019-03-15T15:32:45.327Z,2.43
2019-03-15T15:35:14.736Z,1.73
2019-03-15T15:37:43.220Z,1.70
2019-03-15T15:40:17.453Z,1.77
2019-03-15T15:42:45.942Z,1.87
2019-03-15T15:45:14.835Z,1.70
2019-03-15T15:47:43.487Z,1.77
2019-03-15T15:50:16.096Z,1.70
2019-03-15T15:52:44.759Z,2.10
2019-03-15T15:55:15.217Z,2.30
2019-03-15T15:57:43.819Z,2.10
2019-03-15T16:00:14.722Z,2.10
2019-03-15T16:02:43.214Z,2.50
2019-03-15T16:05:11.910Z,2.60
2019-03-15T16:07:40.399Z,1.97
2019-03-15T16:10:11.675Z,2.17
2019-03-15T16:12:40.233Z,2.10
2019-03-15T16:15:13.343Z,2.20
2019-03-15T16:17:45.077Z,2.20
2019-03-15T16:20:12.465Z,2.70
2019-03-15T16:22:40.949Z,2.50
2019-03-15T16:25:10.714Z,2.97
2019-03-15T16:27:39.361Z,4.17
2019-03-15T16:30:10.887Z,4.00
2019-03-15T16:32:39.352Z,4.43
2019-03-15T16:35:10.271Z,3.87
2019-03-15T16:37:38.730Z,3.20
2019-03-15T16:40:10.107Z,3.27
2019-03-15T16:42:38.636Z,2.73
2019-03-15T16:45:10.239Z,3.20
2019-03-15T16:47:38.701Z,3.33
2019-03-15T16:50:10.430Z,3.40
2019-03-15T16:52:38.896Z,3.87
2019-03-15T16:55:10.229Z,4.00
2019-03-15T16:57:38.704Z,9.50
2019-03-15T17:00:10.570Z,3.53
2019-03-15T17:02:39.035Z,3.30
2019-03-15T17:05:09.964Z,3.50
2019-03-15T17:07:38.501Z,3.43
2019-03-15T17:10:12.561Z,3.23
2019-03-15T17:12:41.038Z,3.27
2019-03-15T17:15:15.029Z,3.00
2019-03-15T17:17:43.497Z,3.07
2019-03-15T17:20:12.658Z,3.60
2019-03-15T17:22:41.120Z,3.23
2019-03-15T17:25:11.248Z,3.33
2019-03-15T17:27:39.728Z,3.47
2019-03-15T17:30:18.553Z,3.30
2019-03-15T17:32:47.019Z,3.60
2019-03-15T17:35:17.049Z,3.27
2019-03-15T17:37:45.519Z,3.47
2019-03-15T17:40:15.466Z,3.23
2019-03-15T17:42:43.924Z,3.47
2019-03-15T17:45:12.763Z,3.63
2019-03-15T17:47:41.245Z,3.53
2019-03-15T17:50:15.330Z,3.90
2019-03-15T17:52:43.845Z,4.17
2019-03-15T17:55:12.534Z,4.00
2019-03-15T17:57:41.065Z,4.30
2019-03-15T18:00:12.472Z,4.60
2019-03-15T18:02:40.940Z,4.67
2019-03-15T18:05:10.075Z,4.73
2019-03-15T18:07:38.540Z,4.93
2019-03-15T18:10:08.369Z,5.33
2019-03-15T18:12:36.835Z,5.20
2019-03-15T18:15:08.195Z,5.13
2019-03-15T18:17:36.608Z,5.10
2019-03-15T18:20:07.349Z,4.97
2019-03-15T18:22:35.814Z,5.33
2019-03-15T18:25:05.933Z,5.60
2019-03-15T18:27:34.469Z,7.47
2019-03-15T18:30:04.902Z,11.20
2019-03-15T18:32:33.378Z,12.67
2019-03-15T18:35:01.883Z,14.30
2019-03-15T18:37:30.352Z,14.30
2019-03-15T18:39:59.180Z,16.87
2019-03-15T18:42:27.846Z,18.83
2019-03-15T18:44:56.345Z,19.10
2019-03-15T18:47:24.823Z,19.33
2019-03-15T18:49:53.394Z,20.07
2019-03-15T18:52:21.872Z,19.77
2019-03-15T18:54:50.376Z,20.93
2019-03-15T18:57:18.850Z,21.23
2019-03-15T18:59:47.350Z,22.23
2019-03-15T19:02:15.834Z,21.20
2019-03-15T19:04:44.338Z,21.73
2019-03-15T19:07:12.820Z,20.17
2019-03-15T19:09:41.311Z,21.23
2019-03-15T19:12:09.819Z,12.10
2019-03-15T19:14:38.292Z,13.10
2019-03-15T19:17:06.763Z,13.57
2019-03-15T19:19:35.263Z,13.10
2019-03-15T19:22:03.738Z,6.47
2019-03-15T19:24:32.235Z,5.50
2019-03-15T19:27:00.701Z,3.30
2019-03-15T19:29:29.169Z,2.27
2019-03-15T19:31:57.687Z,2.00
2019-03-15T19:34:26.129Z,2.07
2019-03-15T19:36:54.623Z,1.70
2019-03-15T19:39:23.101Z,1.70
2019-03-15T19:41:51.582Z,1.83
2019-03-15T19:44:20.051Z,1.87
2019-03-15T19:46:48.563Z,1.87
2019-03-15T19:49:17.012Z,4.50
2019-03-15T19:51:45.524Z,4.50
2019-03-15T19:54:13.983Z,2.23
2019-03-15T19:56:42.471Z,1.80
2019-03-15T19:59:10.944Z,1.43
2019-03-15T20:01:39.437Z,1.50
2019-03-15T20:04:07.908Z,1.40
2019-03-15T20:06:36.397Z,1.53
2019-03-15T20:09:07.324Z,1.60
2019-03-15T20:11:35.826Z,1.90
2019-03-15T20:14:04.455Z,1.83
2019-03-15T20:16:32.957Z,1.60
2019-03-15T20:19:01.427Z,1.50
2019-03-15T20:21:31.709Z,1.40
2019-03-15T20:24:00.170Z,1.60
2019-03-15T20:26:28.659Z,1.87
2019-03-15T20:28:57.121Z,1.87
2019-03-15T20:31:25.609Z,2.00
2019-03-15T20:33:54.073Z,2.50
2019-03-15T20:36:22.561Z,1.70
2019-03-15T20:38:51.025Z,1.60
2019-03-15T20:41:19.872Z,2.27
2019-03-15T20:43:48.426Z,1.90
2019-03-15T20:46:16.915Z,3.80
2019-03-15T20:48:45.380Z,2.13
2019-03-15T20:51:13.874Z,1.80
2019-03-15T20:53:42.404Z,1.90
2019-03-15T20:56:10.891Z,1.70
2019-03-15T20:58:39.351Z,2.07
2019-03-15T21:01:07.840Z,1.70
2019-03-15T21:03:36.306Z,2.10
2019-03-15T21:06:04.963Z,2.17
2019-03-15T21:08:33.422Z,2.00
2019-03-15T21:11:01.909Z,2.90
2019-03-15T21:13:33.622Z,2.10
2019-03-15T21:16:00.596Z,2.90
2019-03-15T21:18:29.055Z,1.80
2019-03-15T21:20:57.540Z,1.63
2019-03-15T21:23:26.007Z,1.60
2019-03-15T21:25:54.495Z,1.60
2019-03-15T21:28:22.957Z,2.07
2019-03-15T21:30:51.453Z,2.27
2019-03-15T21:33:19.915Z,1.50
2019-03-15T21:35:48.391Z,1.50
2019-03-15T21:38:16.863Z,1.77
2019-03-15T21:40:45.348Z,1.43
2019-03-15T21:43:13.807Z,1.23
2019-03-15T21:45:42.297Z,1.30
2019-03-15T21:48:10.759Z,1.43
2019-03-15T21:50:39.261Z,1.30
2019-03-15T21:53:07.708Z,1.27
2019-03-15T21:55:36.174Z,1.37
2019-03-15T21:58:04.655Z,1.40
2019-03-15T22:00:33.290Z,1.50
2019-03-15T22:03:01.781Z,1.43
2019-03-15T22:05:30.248Z,1.57
2019-03-15T22:07:58.732Z,1.40
2019-03-15T22:10:27.193Z,1.60
2019-03-15T22:12:55.681Z,1.40
2019-03-15T22:15:24.143Z,1.20
2019-03-15T22:17:52.768Z,1.23
2019-03-15T22:20:21.369Z,1.47
2019-03-15T22:22:49.868Z,1.20
2019-03-15T22:25:18.329Z,1.00
2019-03-15T22:27:49.995Z,0.90
2019-03-15T22:30:17.011Z,1.13
2019-03-15T22:32:45.501Z,1.47
2019-03-15T22:35:14.311Z,1.07
2019-03-15T22:37:42.780Z,1.10
2019-03-15T22:40:12.982Z,1.23
2019-03-15T22:42:41.468Z,1.43
2019-03-15T22:45:11.669Z,1.20
2019-03-15T22:47:40.231Z,1.63
2019-03-15T22:50:10.329Z,1.50
2019-03-15T22:52:38.914Z,1.40
2019-03-15T22:55:09.019Z,1.30
2019-03-15T22:57:37.515Z,1.50
2019-03-15T23:00:21.657Z,1.23
2019-03-15T23:02:50.334Z,1.20
2019-03-15T23:05:18.947Z,1.10
2019-03-15T23:07:47.433Z,1.37
2019-03-15T23:10:15.894Z,1.20
2019-03-15T23:12:44.387Z,1.80
2019-03-15T23:15:13.100Z,1.20
2019-03-15T23:17:41.656Z,1.20
2019-03-15T23:20:11.958Z,1.20
2019-03-15T23:22:40.448Z,1.20
2019-03-15T23:25:09.477Z,1.27
2019-03-15T23:27:38.000Z,2.37
2019-03-15T23:30:14.775Z,1.07
2019-03-15T23:32:43.267Z,1.80
2019-03-15T23:35:11.778Z,1.20
2019-03-15T23:37:40.276Z,1.33
2019-03-15T23:40:15.790Z,1.70
2019-03-15T23:42:44.283Z,1.50
2019-03-15T23:45:13.009Z,1.57
2019-03-15T23:47:41.496Z,1.50
2019-03-15T23:50:14.271Z,1.30
2019-03-15T23:52:42.828Z,1.60
2019-03-15T23:55:11.580Z,1.50
2019-03-15T23:57:40.021Z,1.60
